createdAt,value
2024-01-26T00:00:52.215Z,90.40
2024-01-26T00:03:27.723Z,90.50
2024-01-26T00:06:03.451Z,90.40
2024-01-26T00:08:37.479Z,90.40
2024-01-26T00:11:11.362Z,90.40
2024-01-26T00:13:45.280Z,90.30
2024-01-26T00:16:19.684Z,90.30
2024-01-26T00:18:53.311Z,90.20
2024-01-26T00:21:30.668Z,90.10
2024-01-26T00:24:06.078Z,90.10
2024-01-26T00:26:39.664Z,90.00
2024-01-26T00:29:13.166Z,89.80
2024-01-26T00:31:47.478Z,89.50
2024-01-26T00:34:21.800Z,89.60
2024-01-26T00:36:58.172Z,89.30
2024-01-26T00:39:31.684Z,88.70
2024-01-26T00:42:07.049Z,87.90
2024-01-26T00:44:41.247Z,87.20
2024-01-26T00:47:16.076Z,86.60
2024-01-26T00:49:53.301Z,85.40
2024-01-26T00:52:28.693Z,84.10
2024-01-26T00:55:02.924Z,83.10
2024-01-26T00:57:36.661Z,82.60
2024-01-26T01:00:11.484Z,80.70
2024-01-26T01:02:46.717Z,79.60
2024-01-26T01:05:20.573Z,78.70
2024-01-26T01:07:57.041Z,77.30
2024-01-26T01:10:31.643Z,75.50
2024-01-26T01:13:07.132Z,73.30
2024-01-26T01:15:42.586Z,73.50
2024-01-26T01:18:16.695Z,71.60
2024-01-26T01:20:50.542Z,70.50
2024-01-26T01:23:26.762Z,69.60
2024-01-26T01:26:00.576Z,68.60
2024-01-26T01:28:37.081Z,68.00
2024-01-26T01:31:10.977Z,67.30
2024-01-26T01:33:46.265Z,64.70
2024-01-26T01:36:20.651Z,65.30
2024-01-26T01:38:57.078Z,63.00
2024-01-26T01:41:30.892Z,62.90
2024-01-26T01:44:04.515Z,62.20
2024-01-26T01:46:38.277Z,61.20
2024-01-26T01:49:12.182Z,59.80
2024-01-26T01:51:50.638Z,59.50
2024-01-26T01:54:28.627Z,57.90
2024-01-26T01:57:03.912Z,57.70
2024-01-26T01:59:39.835Z,56.60
2024-01-26T02:02:13.615Z,55.40
2024-01-26T02:04:47.595Z,54.50
2024-01-26T02:07:21.152Z,54.00
2024-01-26T02:09:57.021Z,53.70
2024-01-26T02:12:31.024Z,53.30
2024-01-26T02:15:05.568Z,52.00
2024-01-26T02:17:42.295Z,52.10
2024-01-26T02:20:16.264Z,51.70
2024-01-26T02:22:49.819Z,51.00
2024-01-26T02:25:25.832Z,50.50
2024-01-26T02:27:59.379Z,49.60
2024-01-26T02:30:36.204Z,50.10
2024-01-26T02:33:10.744Z,49.00
2024-01-26T02:35:44.851Z,49.20
2024-01-26T02:38:19.193Z,49.20
2024-01-26T02:40:55.289Z,48.10
2024-01-26T02:43:28.752Z,46.90
2024-01-26T02:46:02.596Z,46.30
2024-01-26T02:48:36.826Z,46.00
2024-01-26T02:51:11.432Z,46.10
2024-01-26T02:53:46.947Z,45.20
2024-01-26T02:56:26.313Z,45.10
2024-01-26T02:58:59.978Z,43.50
2024-01-26T03:01:35.080Z,43.30
2024-01-26T03:04:09.192Z,42.90
2024-01-26T03:06:42.799Z,42.30
2024-01-26T03:09:16.451Z,41.40
2024-01-26T03:11:52.835Z,39.70
2024-01-26T03:14:27.509Z,39.30
2024-01-26T03:17:01.193Z,38.90
2024-01-26T03:19:38.088Z,39.70
2024-01-26T03:22:11.879Z,38.70
2024-01-26T03:24:49.775Z,39.30
2024-01-26T03:27:28.080Z,38.00
2024-01-26T03:30:02.041Z,36.80
2024-01-26T03:32:36.762Z,36.40
2024-01-26T03:35:12.039Z,36.60
2024-01-26T03:37:46.136Z,37.00
2024-01-26T03:40:21.187Z,37.60
2024-01-26T03:42:58.614Z,38.60
2024-01-26T03:45:33.964Z,39.60
2024-01-26T03:48:09.445Z,40.50
2024-01-26T03:50:47.215Z,40.60
2024-01-26T03:53:21.021Z,41.40
2024-01-26T03:55:54.555Z,42.90
2024-01-26T03:58:30.327Z,43.50
2024-01-26T04:01:04.440Z,43.80
2024-01-26T04:03:38.697Z,43.90
2024-01-26T04:06:12.537Z,44.50
2024-01-26T04:08:46.109Z,45.00
2024-01-26T04:11:20.529Z,45.80
2024-01-26T04:13:56.435Z,46.00
2024-01-26T04:16:30.308Z,46.30
2024-01-26T04:19:04.451Z,46.10
2024-01-26T04:21:38.865Z,46.10
2024-01-26T04:24:13.945Z,45.90
2024-01-26T04:26:47.661Z,45.80
2024-01-26T04:29:23.078Z,45.80
2024-01-26T04:31:56.555Z,46.20
2024-01-26T04:34:30.120Z,46.30
2024-01-26T04:37:03.452Z,46.00
2024-01-26T04:39:36.910Z,46.20
2024-01-26T04:42:11.083Z,46.60
2024-01-26T04:44:47.952Z,46.50
2024-01-26T04:47:21.518Z,46.70
2024-01-26T04:49:55.601Z,47.10
2024-01-26T04:52:29.286Z,47.30
2024-01-26T04:55:02.769Z,47.30
2024-01-26T04:57:36.668Z,47.50
2024-01-26T05:00:15.069Z,47.80
2024-01-26T05:02:49.594Z,48.20
2024-01-26T05:05:23.984Z,48.00
2024-01-26T05:07:57.436Z,48.20
2024-01-26T05:10:31.195Z,48.40
2024-01-26T05:13:05.314Z,48.00
2024-01-26T05:15:43.418Z,48.50
2024-01-26T05:18:17.254Z,48.40
2024-01-26T05:20:51.017Z,48.30
2024-01-26T05:23:25.290Z,48.70
2024-01-26T05:26:00.257Z,48.80
2024-01-26T05:28:35.100Z,48.80
2024-01-26T05:31:12.263Z,49.10
2024-01-26T05:33:46.499Z,49.30
2024-01-26T05:36:20.726Z,49.30
2024-01-26T05:38:54.502Z,49.40
2024-01-26T05:41:28.280Z,50.00
2024-01-26T05:44:02.395Z,49.50
2024-01-26T05:46:38.330Z,49.10
2024-01-26T05:49:12.410Z,49.20
2024-01-26T05:51:46.017Z,49.20
2024-01-26T05:54:19.657Z,49.20
2024-01-26T05:56:53.699Z,49.40
2024-01-26T05:59:27.628Z,48.80
2024-01-26T06:02:05.665Z,48.90
2024-01-26T06:04:39.872Z,49.00
2024-01-26T06:07:15.799Z,49.00
2024-01-26T06:09:49.723Z,49.20
2024-01-26T06:12:25.337Z,49.20
2024-01-26T06:15:03.100Z,49.10
2024-01-26T06:17:45.457Z,49.30
2024-01-26T06:20:19.291Z,49.50
2024-01-26T06:25:52.863Z,49.90
2024-01-26T06:28:47.401Z,50.00
2024-01-26T06:31:20.791Z,50.20
2024-01-26T06:36:46.048Z,50.00
2024-01-26T06:39:19.773Z,49.80
2024-01-26T06:41:54.474Z,49.80
2024-01-26T06:47:15.531Z,48.90
2024-01-26T06:49:58.626Z,48.60
2024-01-26T06:55:19.661Z,48.30
2024-01-26T07:03:49.380Z,47.20
2024-01-26T07:09:25.405Z,47.00
2024-01-26T07:12:01.729Z,47.10
2024-01-26T07:14:35.425Z,47.50
2024-01-26T07:19:55.407Z,46.80
2024-01-26T07:22:30.721Z,46.00
2024-01-26T07:25:04.183Z,46.10
2024-01-26T07:27:38.771Z,45.70
2024-01-26T07:30:13.163Z,45.40
2024-01-26T07:32:47.659Z,45.60
2024-01-26T07:35:27.269Z,45.70
2024-01-26T07:38:11.951Z,45.90
2024-01-26T07:40:47.446Z,46.10
2024-01-26T07:43:21.277Z,46.50
2024-01-26T07:45:55.228Z,46.40
2024-01-26T07:48:28.885Z,46.60
2024-01-26T07:51:02.462Z,46.90
2024-01-26T07:56:25.452Z,48.00
2024-01-26T07:58:59.717Z,48.60
2024-01-26T08:01:36.602Z,50.20
2024-01-26T08:04:10.789Z,50.40
2024-01-26T08:09:37.499Z,51.00
2024-01-26T08:14:58.767Z,51.90
2024-01-26T08:17:32.886Z,52.00
2024-01-26T08:20:12.476Z,52.40
2024-01-26T08:23:12.661Z,52.60
2024-01-26T08:25:56.696Z,52.70
2024-01-26T08:31:31.394Z,52.60
2024-01-26T08:34:05.262Z,52.90
2024-01-26T08:36:39.136Z,53.60
2024-01-26T08:39:14.588Z,53.40
2024-01-26T08:41:49.974Z,54.00
2024-01-26T08:47:15.029Z,54.60
2024-01-26T08:49:49.422Z,54.70
2024-01-26T08:52:24.133Z,54.90
2024-01-26T08:54:58.104Z,55.20
2024-01-26T08:57:33.799Z,55.60
2024-01-26T09:00:11.760Z,55.70
2024-01-26T09:02:46.249Z,55.70
2024-01-26T09:05:20.231Z,55.70
2024-01-26T09:07:53.835Z,55.80
2024-01-26T09:10:29.067Z,55.90
2024-01-26T09:13:05.885Z,56.00
2024-01-26T09:15:39.597Z,56.00
2024-01-26T09:18:13.375Z,56.10
2024-01-26T09:20:51.316Z,56.10
2024-01-26T09:23:25.160Z,56.20
2024-01-26T09:26:00.940Z,56.30
2024-01-26T09:28:37.450Z,56.40
2024-01-26T09:31:11.367Z,56.50
2024-01-26T09:33:45.327Z,56.70
2024-01-26T09:36:19.134Z,56.70
2024-01-26T09:38:53.349Z,56.70
2024-01-26T09:41:27.438Z,57.00
2024-01-26T09:44:04.696Z,57.20
2024-01-26T09:46:39.968Z,57.80
2024-01-26T09:49:14.874Z,57.90
2024-01-26T09:51:48.827Z,58.20
2024-01-26T09:54:26.033Z,58.60
2024-01-26T09:56:59.976Z,59.20
2024-01-26T09:59:36.248Z,59.20
2024-01-26T10:02:12.053Z,59.40
2024-01-26T10:04:46.418Z,59.60
2024-01-26T10:07:20.410Z,59.70
2024-01-26T10:09:55.620Z,60.10
2024-01-26T10:12:30.254Z,60.30
2024-01-26T10:15:13.122Z,60.80
2024-01-26T10:17:48.167Z,61.10
2024-01-26T10:20:23.631Z,61.30
2024-01-26T10:22:58.452Z,61.70
2024-01-26T10:25:33.266Z,62.30
2024-01-26T10:28:14.392Z,61.60
2024-01-26T10:30:54.296Z,61.90
2024-01-26T10:33:28.784Z,62.20
2024-01-26T10:36:05.987Z,62.40
2024-01-26T10:38:43.147Z,62.70
2024-01-26T10:41:23.746Z,62.60
2024-01-26T10:43:58.508Z,62.90
2024-01-26T10:46:34.559Z,63.10
2024-01-26T10:49:09.099Z,63.20
2024-01-26T10:51:44.029Z,63.60
2024-01-26T10:54:18.481Z,63.30
2024-01-26T10:56:52.288Z,63.90
2024-01-26T10:59:28.080Z,63.70
2024-01-26T11:02:04.935Z,64.50
2024-01-26T11:04:38.920Z,64.50
2024-01-26T11:07:13.634Z,64.90
2024-01-26T11:09:52.049Z,65.00
2024-01-26T11:12:29.105Z,65.20
2024-01-26T11:15:13.610Z,65.60
2024-01-26T11:17:56.090Z,66.00
2024-01-26T11:20:34.579Z,65.80
2024-01-26T11:23:11.248Z,65.70
2024-01-26T11:25:46.908Z,66.10
2024-01-26T11:28:21.861Z,66.30
2024-01-26T11:31:00.066Z,66.40
2024-01-26T11:33:44.282Z,66.30
2024-01-26T11:36:24.993Z,66.70
2024-01-26T11:38:59.991Z,66.50
2024-01-26T11:41:34.804Z,66.10
2024-01-26T11:44:13.943Z,66.80
2024-01-26T11:46:50.540Z,66.90
2024-01-26T11:49:26.174Z,66.70
2024-01-26T11:52:00.118Z,66.70
2024-01-26T11:54:34.120Z,66.60
2024-01-26T11:57:08.281Z,66.30
2024-01-26T11:59:42.402Z,66.50
2024-01-26T12:02:16.201Z,66.40
2024-01-26T12:04:52.526Z,66.20
2024-01-26T12:07:27.058Z,66.10
2024-01-26T12:10:01.027Z,66.40
2024-01-26T12:12:35.620Z,65.90
2024-01-26T12:15:11.196Z,65.90
2024-01-26T12:17:46.117Z,66.20
2024-01-26T12:20:24.023Z,66.20
2024-01-26T12:23:00.387Z,66.20
2024-01-26T12:25:34.403Z,66.10
2024-01-26T12:28:08.956Z,65.90
2024-01-26T12:30:48.697Z,65.80
2024-01-26T12:33:23.554Z,66.00
2024-01-26T12:36:03.377Z,65.70
2024-01-26T12:38:37.304Z,65.80
2024-01-26T12:41:10.864Z,65.70
2024-01-26T12:43:45.542Z,65.50
2024-01-26T12:46:19.834Z,65.40
2024-01-26T12:48:53.772Z,65.70
2024-01-26T12:51:31.902Z,65.50
2024-01-26T12:54:05.787Z,65.60
2024-01-26T12:56:39.729Z,66.10
2024-01-26T12:59:13.434Z,65.60
2024-01-26T13:01:48.341Z,65.70
2024-01-26T13:04:22.095Z,66.00
2024-01-26T13:06:59.181Z,66.30
2024-01-26T13:09:33.453Z,66.80
2024-01-26T13:12:07.543Z,66.70
2024-01-26T13:14:41.353Z,66.80
2024-01-26T13:17:15.003Z,66.90
2024-01-26T13:19:51.812Z,67.10
2024-01-26T13:22:31.226Z,67.00
2024-01-26T13:25:06.146Z,67.20
2024-01-26T13:27:40.052Z,67.50
2024-01-26T13:30:15.807Z,67.50
2024-01-26T13:32:50.576Z,67.80
2024-01-26T13:35:26.124Z,68.20
2024-01-26T13:38:03.714Z,67.90
2024-01-26T13:40:36.982Z,68.10
2024-01-26T13:43:11.181Z,68.00
2024-01-26T13:45:45.537Z,68.20
2024-01-26T13:48:19.529Z,68.20
2024-01-26T13:50:55.157Z,68.30
2024-01-26T13:53:31.415Z,68.40
2024-01-26T13:56:05.655Z,68.20
2024-01-26T13:58:39.297Z,68.20
2024-01-26T14:01:16.883Z,67.70
2024-01-26T14:03:51.156Z,68.20
2024-01-26T14:06:25.298Z,68.10
2024-01-26T14:09:00.597Z,68.30
2024-01-26T14:11:36.518Z,68.20
2024-01-26T14:14:10.471Z,68.20
2024-01-26T14:16:45.210Z,68.20
2024-01-26T14:19:19.005Z,68.00
2024-01-26T14:21:54.585Z,68.20
2024-01-26T14:24:32.009Z,68.10
2024-01-26T14:27:06.104Z,68.30
2024-01-26T14:29:41.498Z,68.40
2024-01-26T14:32:15.369Z,68.40
2024-01-26T14:34:49.102Z,68.20
2024-01-26T14:37:23.789Z,68.20
2024-01-26T14:39:59.975Z,67.80
2024-01-26T14:42:34.634Z,67.80
2024-01-26T14:45:10.530Z,68.20
2024-01-26T14:47:45.401Z,68.30
2024-01-26T14:50:19.356Z,68.60
2024-01-26T14:52:52.976Z,68.70
2024-01-26T14:55:30.821Z,68.70
2024-01-26T14:58:06.318Z,68.90
2024-01-26T15:00:40.396Z,68.90
2024-01-26T15:03:15.401Z,68.90
2024-01-26T15:05:50.649Z,68.90
2024-01-26T15:10:44.845Z,69.10
2024-01-26T15:13:18.754Z,69.20
2024-01-26T15:15:53.090Z,69.10
2024-01-26T15:20:10.793Z,69.00
